sensor_id;sensor_type;location;lat;lon;timestamp;P1;durP1;ratioP1;P2;durP2;ratioP2
29538;SDS011;16482;51.046;4.498;2023-05-18T00:01:59;4.40;;;2.20;;
29538;SDS011;16482;51.046;4.498;2023-05-18T00:04:29;5.60;;;2.40;;
29538;SDS011;16482;51.046;4.498;2023-05-18T00:07:00;4.70;;;1.98;;
29538;SDS011;16482;51.046;4.498;2023-05-18T00:09:31;5.47;;;2.25;;
29538;SDS011;16482;51.046;4.498;2023-05-18T00:12:05;7.05;;;2.40;;
29538;SDS011;16482;51.046;4.498;2023-05-18T00:14:35;4.82;;;2.15;;
29538;SDS011;16482;51.046;4.498;2023-05-18T00:17:01;4.97;;;2.20;;
29538;SDS011;16482;51.046;4.498;2023-05-18T00:19:30;5.38;;;2.35;;
29538;SDS011;16482;51.046;4.498;2023-05-18T00:22:03;5.05;;;2.38;;
29538;SDS011;16482;51.046;4.498;2023-05-18T00:24:31;6.45;;;2.45;;
29538;SDS011;16482;51.046;4.498;2023-05-18T00:27:00;5.72;;;2.30;;
29538;SDS011;16482;51.046;4.498;2023-05-18T00:29:29;6.30;;;2.05;;
29538;SDS011;16482;51.046;4.498;2023-05-18T00:32:02;3.92;;;1.90;;
29538;SDS011;16482;51.046;4.498;2023-05-18T00:34:29;3.67;;;2.15;;
29538;SDS011;16482;51.046;4.498;2023-05-18T00:37:03;5.65;;;2.38;;
29538;SDS011;16482;51.046;4.498;2023-05-18T00:39:32;5.07;;;2.22;;
29538;SDS011;16482;51.046;4.498;2023-05-18T00:42:00;4.32;;;2.13;;
29538;SDS011;16482;51.046;4.498;2023-05-18T00:44:29;4.10;;;2.05;;
29538;SDS011;16482;51.046;4.498;2023-05-18T00:47:00;8.20;;;2.63;;
29538;SDS011;16482;51.046;4.498;2023-05-18T00:49:29;3.35;;;1.88;;
29538;SDS011;16482;51.046;4.498;2023-05-18T00:52:04;6.88;;;2.30;;
29538;SDS011;16482;51.046;4.498;2023-05-18T00:54:33;3.95;;;2.05;;
29538;SDS011;16482;51.046;4.498;2023-05-18T00:56:59;6.15;;;2.15;;
29538;SDS011;16482;51.046;4.498;2023-05-18T00:59:29;4.68;;;2.30;;
29538;SDS011;16482;51.046;4.498;2023-05-18T01:01:59;6.35;;;2.60;;
29538;SDS011;16482;51.046;4.498;2023-05-18T01:04:28;3.95;;;2.20;;
29538;SDS011;16482;51.046;4.498;2023-05-18T01:07:04;4.13;;;2.20;;
29538;SDS011;16482;51.046;4.498;2023-05-18T01:09:34;3.22;;;1.70;;
29538;SDS011;16482;51.046;4.498;2023-05-18T01:12:34;4.07;;;2.03;;
29538;SDS011;16482;51.046;4.498;2023-05-18T01:14:58;5.18;;;2.22;;
29538;SDS011;16482;51.046;4.498;2023-05-18T01:23:17;4.45;;;1.85;;
29538;SDS011;16482;51.046;4.498;2023-05-18T01:26:12;4.50;;;2.20;;
29538;SDS011;16482;51.046;4.498;2023-05-18T01:28:39;5.93;;;2.47;;
29538;SDS011;16482;51.046;4.498;2023-05-18T01:31:10;4.82;;;1.90;;
29538;SDS011;16482;51.046;4.498;2023-05-18T01:33:38;5.05;;;2.15;;
29538;SDS011;16482;51.046;4.498;2023-05-18T01:36:13;4.18;;;1.80;;
29538;SDS011;16482;51.046;4.498;2023-05-18T01:38:39;5.30;;;2.38;;
29538;SDS011;16482;51.046;4.498;2023-05-18T01:46:52;6.18;;;2.25;;
29538;SDS011;16482;51.046;4.498;2023-05-18T01:49:31;7.05;;;2.10;;
29538;SDS011;16482;51.046;4.498;2023-05-18T01:52:02;4.70;;;2.25;;
29538;SDS011;16482;51.046;4.498;2023-05-18T01:54:31;5.45;;;2.00;;
29538;SDS011;16482;51.046;4.498;2023-05-18T01:57:00;4.07;;;2.30;;
29538;SDS011;16482;51.046;4.498;2023-05-18T01:59:30;4.68;;;2.20;;
29538;SDS011;16482;51.046;4.498;2023-05-18T02:02:01;5.47;;;2.25;;
29538;SDS011;16482;51.046;4.498;2023-05-18T02:04:30;6.07;;;2.08;;
29538;SDS011;16482;51.046;4.498;2023-05-18T02:06:56;5.32;;;1.90;;
29538;SDS011;16482;51.046;4.498;2023-05-18T02:09:28;4.70;;;1.90;;
29538;SDS011;16482;51.046;4.498;2023-05-18T02:12:01;3.90;;;1.80;;
29538;SDS011;16482;51.046;4.498;2023-05-18T02:14:27;4.63;;;2.08;;
29538;SDS011;16482;51.046;4.498;2023-05-18T02:17:01;6.13;;;2.47;;
29538;SDS011;16482;51.046;4.498;2023-05-18T02:19:29;4.63;;;2.15;;
29538;SDS011;16482;51.046;4.498;2023-05-18T02:22:00;5.18;;;1.90;;
29538;SDS011;16482;51.046;4.498;2023-05-18T02:24:36;3.75;;;1.90;;
29538;SDS011;16482;51.046;4.498;2023-05-18T02:27:03;4.55;;;2.22;;
29538;SDS011;16482;51.046;4.498;2023-05-18T02:29:30;3.60;;;2.00;;
29538;SDS011;16482;51.046;4.498;2023-05-18T02:31:59;6.63;;;2.40;;
29538;SDS011;16482;51.046;4.498;2023-05-18T02:34:34;6.55;;;2.15;;
29538;SDS011;16482;51.046;4.498;2023-05-18T02:37:07;3.88;;;1.90;;
29538;SDS011;16482;51.046;4.498;2023-05-18T02:39:34;6.65;;;2.05;;
29538;SDS011;16482;51.046;4.498;2023-05-18T02:42:03;4.82;;;1.90;;
29538;SDS011;16482;51.046;4.498;2023-05-18T02:44:29;4.85;;;1.98;;
29538;SDS011;16482;51.046;4.498;2023-05-18T02:47:04;3.92;;;1.80;;
29538;SDS011;16482;51.046;4.498;2023-05-18T02:49:30;5.82;;;2.20;;
29538;SDS011;16482;51.046;4.498;2023-05-18T02:51:57;4.15;;;1.90;;
29538;SDS011;16482;51.046;4.498;2023-05-18T02:54:28;4.45;;;1.95;;
29538;SDS011;16482;51.046;4.498;2023-05-18T02:57:03;4.47;;;1.88;;
29538;SDS011;16482;51.046;4.498;2023-05-18T02:59:29;3.20;;;1.50;;
29538;SDS011;16482;51.046;4.498;2023-05-18T03:02:02;3.97;;;2.20;;
29538;SDS011;16482;51.046;4.498;2023-05-18T03:04:29;3.83;;;2.00;;
29538;SDS011;16482;51.046;4.498;2023-05-18T03:06:58;3.97;;;1.65;;
29538;SDS011;16482;51.046;4.498;2023-05-18T03:09:27;3.60;;;1.83;;
29538;SDS011;16482;51.046;4.498;2023-05-18T03:11:58;4.15;;;1.92;;
29538;SDS011;16482;51.046;4.498;2023-05-18T03:14:29;5.10;;;1.73;;
29538;SDS011;16482;51.046;4.498;2023-05-18T03:17:04;5.30;;;2.15;;
29538;SDS011;16482;51.046;4.498;2023-05-18T03:19:31;4.50;;;2.25;;
29538;SDS011;16482;51.046;4.498;2023-05-18T03:22:01;3.70;;;1.73;;
29538;SDS011;16482;51.046;4.498;2023-05-18T03:24:31;3.85;;;1.90;;
29538;SDS011;16482;51.046;4.498;2023-05-18T03:27:05;4.57;;;1.92;;
29538;SDS011;16482;51.046;4.498;2023-05-18T03:29:31;4.07;;;1.90;;
29538;SDS011;16482;51.046;4.498;2023-05-18T03:31:59;3.90;;;1.65;;
29538;SDS011;16482;51.046;4.498;2023-05-18T03:34:34;2.83;;;1.80;;
29538;SDS011;16482;51.046;4.498;2023-05-18T03:41:58;4.32;;;1.52;;
29538;SDS011;16482;51.046;4.498;2023-05-18T03:44:33;2.70;;;1.70;;
29538;SDS011;16482;51.046;4.498;2023-05-18T03:47:01;4.22;;;2.00;;
29538;SDS011;16482;51.046;4.498;2023-05-18T03:49:32;4.20;;;1.90;;
29538;SDS011;16482;51.046;4.498;2023-05-18T03:52:09;4.38;;;2.17;;
29538;SDS011;16482;51.046;4.498;2023-05-18T03:54:44;3.85;;;1.90;;
29538;SDS011;16482;51.046;4.498;2023-05-18T03:57:09;4.82;;;2.35;;
29538;SDS011;16482;51.046;4.498;2023-05-18T03:59:36;4.20;;;1.75;;
29538;SDS011;16482;51.046;4.498;2023-05-18T04:02:02;5.00;;;2.17;;
29538;SDS011;16482;51.046;4.498;2023-05-18T04:04:35;3.42;;;1.92;;
29538;SDS011;16482;51.046;4.498;2023-05-18T04:07:11;4.57;;;2.13;;
29538;SDS011;16482;51.046;4.498;2023-05-18T04:09:39;3.38;;;1.98;;
29538;SDS011;16482;51.046;4.498;2023-05-18T04:12:09;3.65;;;1.98;;
29538;SDS011;16482;51.046;4.498;2023-05-18T04:14:42;3.78;;;1.83;;
29538;SDS011;16482;51.046;4.498;2023-05-18T04:17:15;3.35;;;1.88;;
29538;SDS011;16482;51.046;4.498;2023-05-18T04:19:42;3.70;;;1.77;;
29538;SDS011;16482;51.046;4.498;2023-05-18T04:22:08;3.67;;;2.00;;
29538;SDS011;16482;51.046;4.498;2023-05-18T04:24:34;3.78;;;1.88;;
29538;SDS011;16482;51.046;4.498;2023-05-18T04:27:01;4.25;;;2.22;;
29538;SDS011;16482;51.046;4.498;2023-05-18T04:29:28;4.28;;;2.20;;
29538;SDS011;16482;51.046;4.498;2023-05-18T04:32:01;4.10;;;1.80;;
29538;SDS011;16482;51.046;4.498;2023-05-18T04:34:30;3.40;;;1.60;;
29538;SDS011;16482;51.046;4.498;2023-05-18T04:36:59;5.53;;;2.13;;
29538;SDS011;16482;51.046;4.498;2023-05-18T04:39:32;3.67;;;1.90;;
29538;SDS011;16482;51.046;4.498;2023-05-18T04:42:08;4.43;;;1.90;;
29538;SDS011;16482;51.046;4.498;2023-05-18T04:44:43;3.83;;;1.80;;
29538;SDS011;16482;51.046;4.498;2023-05-18T04:47:20;4.97;;;1.83;;
29538;SDS011;16482;51.046;4.498;2023-05-18T04:49:46;7.25;;;1.90;;
29538;SDS011;16482;51.046;4.498;2023-05-18T04:52:13;3.33;;;1.70;;
29538;SDS011;16482;51.046;4.498;2023-05-18T04:54:39;3.55;;;2.05;;
29538;SDS011;16482;51.046;4.498;2023-05-18T04:57:05;2.75;;;1.60;;
29538;SDS011;16482;51.046;4.498;2023-05-18T04:59:34;4.30;;;2.03;;
29538;SDS011;16482;51.046;4.498;2023-05-18T05:02:01;3.95;;;2.20;;
29538;SDS011;16482;51.046;4.498;2023-05-18T05:04:36;5.13;;;2.00;;
29538;SDS011;16482;51.046;4.498;2023-05-18T05:07:09;2.92;;;1.67;;
29538;SDS011;16482;51.046;4.498;2023-05-18T05:09:38;4.55;;;1.95;;
29538;SDS011;16482;51.046;4.498;2023-05-18T05:12:05;4.88;;;2.08;;
29538;SDS011;16482;51.046;4.498;2023-05-18T05:14:34;4.38;;;2.10;;
29538;SDS011;16482;51.046;4.498;2023-05-18T05:17:02;4.95;;;2.00;;
29538;SDS011;16482;51.046;4.498;2023-05-18T05:19:31;4.25;;;2.10;;
29538;SDS011;16482;51.046;4.498;2023-05-18T05:22:06;3.08;;;1.85;;
29538;SDS011;16482;51.046;4.498;2023-05-18T05:24:34;3.80;;;1.70;;
29538;SDS011;16482;51.046;4.498;2023-05-18T05:27:00;3.75;;;2.00;;
29538;SDS011;16482;51.046;4.498;2023-05-18T05:29:29;3.75;;;1.70;;
29538;SDS011;16482;51.046;4.498;2023-05-18T05:31:55;2.58;;;1.40;;
29538;SDS011;16482;51.046;4.498;2023-05-18T05:34:31;4.15;;;1.80;;
29538;SDS011;16482;51.046;4.498;2023-05-18T05:37:00;3.78;;;1.70;;
29538;SDS011;16482;51.046;4.498;2023-05-18T05:39:31;4.07;;;2.00;;
29538;SDS011;16482;51.046;4.498;2023-05-18T05:42:06;6.28;;;2.42;;
29538;SDS011;16482;51.046;4.498;2023-05-18T05:44:43;4.13;;;2.03;;
29538;SDS011;16482;51.046;4.498;2023-05-18T05:47:09;7.88;;;2.20;;
29538;SDS011;16482;51.046;4.498;2023-05-18T05:49:35;3.50;;;1.70;;
29538;SDS011;16482;51.046;4.498;2023-05-18T05:52:01;5.05;;;1.73;;
29538;SDS011;16482;51.046;4.498;2023-05-18T05:54:34;4.28;;;1.60;;
29538;SDS011;16482;51.046;4.498;2023-05-18T05:57:09;4.20;;;1.98;;
29538;SDS011;16482;51.046;4.498;2023-05-18T05:59:35;4.32;;;1.77;;
29538;SDS011;16482;51.046;4.498;2023-05-18T06:02:01;4.88;;;1.80;;
29538;SDS011;16482;51.046;4.498;2023-05-18T06:04:34;4.82;;;1.85;;
29538;SDS011;16482;51.046;4.498;2023-05-18T06:07:00;5.13;;;1.65;;
29538;SDS011;16482;51.046;4.498;2023-05-18T06:09:29;5.45;;;1.90;;
29538;SDS011;16482;51.046;4.498;2023-05-18T06:12:03;5.13;;;1.98;;
29538;SDS011;16482;51.046;4.498;2023-05-18T06:14:29;4.75;;;2.00;;
29538;SDS011;16482;51.046;4.498;2023-05-18T06:16:55;2.97;;;1.75;;
29538;SDS011;16482;51.046;4.498;2023-05-18T06:19:28;3.22;;;1.83;;
29538;SDS011;16482;51.046;4.498;2023-05-18T06:22:00;3.72;;;1.92;;
29538;SDS011;16482;51.046;4.498;2023-05-18T06:24:34;2.97;;;1.70;;
29538;SDS011;16482;51.046;4.498;2023-05-18T06:27:03;5.32;;;1.73;;
29538;SDS011;16482;51.046;4.498;2023-05-18T06:29:29;3.55;;;1.77;;
29538;SDS011;16482;51.046;4.498;2023-05-18T06:32:04;4.35;;;2.05;;
29538;SDS011;16482;51.046;4.498;2023-05-18T06:34:30;4.88;;;2.17;;
29538;SDS011;16482;51.046;4.498;2023-05-18T06:37:04;4.88;;;1.95;;
29538;SDS011;16482;51.046;4.498;2023-05-18T06:39:30;4.97;;;1.90;;
29538;SDS011;16482;51.046;4.498;2023-05-18T06:42:01;5.25;;;2.03;;
29538;SDS011;16482;51.046;4.498;2023-05-18T06:44:30;4.70;;;1.90;;
29538;SDS011;16482;51.046;4.498;2023-05-18T06:47:02;3.38;;;1.90;;
29538;SDS011;16482;51.046;4.498;2023-05-18T06:49:30;5.00;;;1.83;;
29538;SDS011;16482;51.046;4.498;2023-05-18T06:52:04;4.00;;;1.70;;
29538;SDS011;16482;51.046;4.498;2023-05-18T06:54:32;4.53;;;1.98;;
29538;SDS011;16482;51.046;4.498;2023-05-18T06:57:01;3.85;;;1.70;;
29538;SDS011;16482;51.046;4.498;2023-05-18T06:59:30;4.45;;;2.13;;
29538;SDS011;16482;51.046;4.498;2023-05-18T07:02:02;4.35;;;1.95;;
29538;SDS011;16482;51.046;4.498;2023-05-18T07:04:34;4.38;;;1.92;;
29538;SDS011;16482;51.046;4.498;2023-05-18T07:07:03;4.40;;;2.03;;
29538;SDS011;16482;51.046;4.498;2023-05-18T07:09:32;10.07;;;2.00;;
29538;SDS011;16482;51.046;4.498;2023-05-18T07:12:01;4.32;;;2.05;;
29538;SDS011;16482;51.046;4.498;2023-05-18T07:14:30;5.15;;;2.08;;
29538;SDS011;16482;51.046;4.498;2023-05-18T07:17:00;5.90;;;1.90;;
29538;SDS011;16482;51.046;4.498;2023-05-18T07:19:29;4.53;;;2.10;;
29538;SDS011;16482;51.046;4.498;2023-05-18T07:22:04;5.22;;;2.10;;
29538;SDS011;16482;51.046;4.498;2023-05-18T07:24:34;4.80;;;2.17;;
29538;SDS011;16482;51.046;4.498;2023-05-18T07:27:02;5.32;;;1.98;;
29538;SDS011;16482;51.046;4.498;2023-05-18T07:29:31;7.75;;;2.13;;
29538;SDS011;16482;51.046;4.498;2023-05-18T07:32:00;5.32;;;2.05;;
29538;SDS011;16482;51.046;4.498;2023-05-18T07:34:35;6.80;;;2.30;;
29538;SDS011;16482;51.046;4.498;2023-05-18T07:37:03;6.25;;;2.20;;
29538;SDS011;16482;51.046;4.498;2023-05-18T07:39:29;5.57;;;1.80;;
29538;SDS011;16482;51.046;4.498;2023-05-18T07:42:00;6.28;;;2.03;;
29538;SDS011;16482;51.046;4.498;2023-05-18T07:44:29;3.90;;;2.40;;
29538;SDS011;16482;51.046;4.498;2023-05-18T07:47:03;4.68;;;1.92;;
29538;SDS011;16482;51.046;4.498;2023-05-18T07:49:32;8.98;;;2.00;;
29538;SDS011;16482;51.046;4.498;2023-05-18T07:52:01;4.45;;;1.75;;
29538;SDS011;16482;51.046;4.498;2023-05-18T07:54:36;7.85;;;2.20;;
29538;SDS011;16482;51.046;4.498;2023-05-18T07:57:01;5.15;;;2.42;;
29538;SDS011;16482;51.046;4.498;2023-05-18T07:59:30;5.00;;;2.00;;
29538;SDS011;16482;51.046;4.498;2023-05-18T08:02:05;3.38;;;2.05;;
29538;SDS011;16482;51.046;4.498;2023-05-18T08:04:41;3.40;;;1.90;;
29538;SDS011;16482;51.046;4.498;2023-05-18T08:07:07;4.95;;;2.28;;
29538;SDS011;16482;51.046;4.498;2023-05-18T08:09:34;6.13;;;2.63;;
29538;SDS011;16482;51.046;4.498;2023-05-18T08:12:03;7.25;;;2.15;;
29538;SDS011;16482;51.046;4.498;2023-05-18T08:14:32;6.55;;;2.10;;
29538;SDS011;16482;51.046;4.498;2023-05-18T08:17:07;5.00;;;2.40;;
29538;SDS011;16482;51.046;4.498;2023-05-18T08:19:33;3.55;;;1.88;;
29538;SDS011;16482;51.046;4.498;2023-05-18T08:21:59;5.72;;;2.38;;
29538;SDS011;16482;51.046;4.498;2023-05-18T08:24:32;4.43;;;2.10;;
29538;SDS011;16482;51.046;4.498;2023-05-18T08:27:01;4.88;;;2.30;;
29538;SDS011;16482;51.046;4.498;2023-05-18T08:29:36;6.07;;;2.50;;
29538;SDS011;16482;51.046;4.498;2023-05-18T08:32:04;7.97;;;2.67;;
29538;SDS011;16482;51.046;4.498;2023-05-18T08:34:31;6.78;;;2.20;;
29538;SDS011;16482;51.046;4.498;2023-05-18T08:36:59;4.35;;;2.08;;
29538;SDS011;16482;51.046;4.498;2023-05-18T08:39:33;4.80;;;2.17;;
29538;SDS011;16482;51.046;4.498;2023-05-18T08:42:02;5.18;;;2.72;;
29538;SDS011;16482;51.046;4.498;2023-05-18T08:44:44;3.85;;;1.98;;
29538;SDS011;16482;51.046;4.498;2023-05-18T08:47:16;4.25;;;2.05;;
29538;SDS011;16482;51.046;4.498;2023-05-18T08:49:49;7.55;;;2.35;;
29538;SDS011;16482;51.046;4.498;2023-05-18T08:52:17;3.72;;;2.00;;
29538;SDS011;16482;51.046;4.498;2023-05-18T08:54:44;5.68;;;2.20;;
29538;SDS011;16482;51.046;4.498;2023-05-18T08:57:13;6.47;;;2.17;;
29538;SDS011;16482;51.046;4.498;2023-05-18T08:59:41;5.50;;;2.45;;
29538;SDS011;16482;51.046;4.498;2023-05-18T09:02:10;5.68;;;2.85;;
29538;SDS011;16482;51.046;4.498;2023-05-18T09:04:41;4.90;;;2.38;;
29538;SDS011;16482;51.046;4.498;2023-05-18T09:07:13;4.20;;;2.25;;
29538;SDS011;16482;51.046;4.498;2023-05-18T09:09:40;5.93;;;2.10;;
29538;SDS011;16482;51.046;4.498;2023-05-18T09:12:06;7.00;;;2.20;;
29538;SDS011;16482;51.046;4.498;2023-05-18T09:14:33;6.22;;;2.60;;
29538;SDS011;16482;51.046;4.498;2023-05-18T09:17:02;3.38;;;1.90;;
29538;SDS011;16482;51.046;4.498;2023-05-18T09:19:31;5.57;;;2.70;;
29538;SDS011;16482;51.046;4.498;2023-05-18T09:21:59;4.43;;;1.90;;
29538;SDS011;16482;51.046;4.498;2023-05-18T09:24:37;9.57;;;2.40;;
29538;SDS011;16482;51.046;4.498;2023-05-18T09:27:03;8.02;;;2.47;;
29538;SDS011;16482;51.046;4.498;2023-05-18T09:29:33;5.35;;;2.10;;
29538;SDS011;16482;51.046;4.498;2023-05-18T09:32:02;5.45;;;2.55;;
29538;SDS011;16482;51.046;4.498;2023-05-18T09:34:40;6.40;;;2.53;;
29538;SDS011;16482;51.046;4.498;2023-05-18T09:37:06;5.40;;;2.00;;
29538;SDS011;16482;51.046;4.498;2023-05-18T09:39:34;6.07;;;2.25;;
29538;SDS011;16482;51.046;4.498;2023-05-18T09:42:02;6.10;;;2.72;;
29538;SDS011;16482;51.046;4.498;2023-05-18T09:44:35;5.03;;;2.08;;
29538;SDS011;16482;51.046;4.498;2023-05-18T09:47:01;7.60;;;2.70;;
29538;SDS011;16482;51.046;4.498;2023-05-18T09:49:35;6.55;;;2.55;;
29538;SDS011;16482;51.046;4.498;2023-05-18T09:52:01;7.30;;;2.38;;
29538;SDS011;16482;51.046;4.498;2023-05-18T09:54:31;6.18;;;1.90;;
29538;SDS011;16482;51.046;4.498;2023-05-18T09:57:02;5.25;;;2.15;;
29538;SDS011;16482;51.046;4.498;2023-05-18T09:59:34;9.93;;;2.60;;
29538;SDS011;16482;51.046;4.498;2023-05-18T10:02:01;7.15;;;2.33;;
29538;SDS011;16482;51.046;4.498;2023-05-18T10:04:41;6.20;;;2.08;;
29538;SDS011;16482;51.046;4.498;2023-05-18T10:07:16;5.68;;;2.42;;
29538;SDS011;16482;51.046;4.498;2023-05-18T10:09:45;4.78;;;2.28;;
29538;SDS011;16482;51.046;4.498;2023-05-18T10:12:12;5.25;;;2.42;;
29538;SDS011;16482;51.046;4.498;2023-05-18T10:14:51;5.55;;;2.22;;
29538;SDS011;16482;51.046;4.498;2023-05-18T10:17:17;5.40;;;2.45;;
29538;SDS011;16482;51.046;4.498;2023-05-18T10:19:53;6.38;;;2.72;;
29538;SDS011;16482;51.046;4.498;2023-05-18T10:22:21;9.15;;;3.13;;
29538;SDS011;16482;51.046;4.498;2023-05-18T10:24:49;5.88;;;2.40;;
29538;SDS011;16482;51.046;4.498;2023-05-18T10:27:21;7.10;;;2.40;;
29538;SDS011;16482;51.046;4.498;2023-05-18T10:29:51;6.97;;;2.70;;
29538;SDS011;16482;51.046;4.498;2023-05-18T10:32:31;5.68;;;2.72;;
29538;SDS011;16482;51.046;4.498;2023-05-18T10:34:59;7.32;;;2.80;;
29538;SDS011;16482;51.046;4.498;2023-05-18T10:37:27;6.00;;;2.42;;
29538;SDS011;16482;51.046;4.498;2023-05-18T10:39:56;6.30;;;2.53;;
29538;SDS011;16482;51.046;4.498;2023-05-18T10:42:24;6.38;;;2.30;;
29538;SDS011;16482;51.046;4.498;2023-05-18T10:44:53;6.68;;;2.35;;
29538;SDS011;16482;51.046;4.498;2023-05-18T10:47:25;7.68;;;2.75;;
29538;SDS011;16482;51.046;4.498;2023-05-18T10:49:52;5.13;;;2.40;;
29538;SDS011;16482;51.046;4.498;2023-05-18T10:52:19;7.25;;;2.80;;
29538;SDS011;16482;51.046;4.498;2023-05-18T10:54:55;7.65;;;2.50;;
29538;SDS011;16482;51.046;4.498;2023-05-18T10:57:24;5.50;;;2.75;;
29538;SDS011;16482;51.046;4.498;2023-05-18T10:59:58;7.32;;;2.47;;
29538;SDS011;16482;51.046;4.498;2023-05-18T11:02:27;9.00;;;2.75;;
29538;SDS011;16482;51.046;4.498;2023-05-18T11:04:54;5.95;;;2.60;;
29538;SDS011;16482;51.046;4.498;2023-05-18T11:07:21;6.53;;;2.90;;
29538;SDS011;16482;51.046;4.498;2023-05-18T11:09:58;4.15;;;2.42;;
29538;SDS011;16482;51.046;4.498;2023-05-18T11:12:26;6.07;;;2.65;;
29538;SDS011;16482;51.046;4.498;2023-05-18T11:14:55;5.03;;;2.42;;
29538;SDS011;16482;51.046;4.498;2023-05-18T11:17:27;6.65;;;2.40;;
29538;SDS011;16482;51.046;4.498;2023-05-18T11:28:06;4.07;;;2.33;;
29538;SDS011;16482;51.046;4.498;2023-05-18T11:33:12;4.90;;;2.22;;
29538;SDS011;16482;51.046;4.498;2023-05-18T11:35:55;9.43;;;2.90;;
29538;SDS011;16482;51.046;4.498;2023-05-18T11:38:53;3.92;;;2.45;;
29538;SDS011;16482;51.046;4.498;2023-05-18T11:41:36;5.88;;;2.40;;
29538;SDS011;16482;51.046;4.498;2023-05-18T11:46:39;4.72;;;2.42;;
29538;SDS011;16482;51.046;4.498;2023-05-18T11:49:15;6.72;;;2.63;;
29538;SDS011;16482;51.046;4.498;2023-05-18T11:54:34;7.20;;;2.70;;
29538;SDS011;16482;51.046;4.498;2023-05-18T11:57:07;7.30;;;2.90;;
29538;SDS011;16482;51.046;4.498;2023-05-18T11:59:39;9.52;;;2.92;;
29538;SDS011;16482;51.046;4.498;2023-05-18T12:02:06;6.65;;;2.75;;
29538;SDS011;16482;51.046;4.498;2023-05-18T12:05:10;7.03;;;2.60;;
29538;SDS011;16482;51.046;4.498;2023-05-18T12:07:33;6.45;;;2.72;;
29538;SDS011;16482;51.046;4.498;2023-05-18T12:10:03;5.93;;;2.75;;
29538;SDS011;16482;51.046;4.498;2023-05-18T12:12:38;6.22;;;2.78;;
29538;SDS011;16482;51.046;4.498;2023-05-18T12:15:06;6.07;;;2.75;;
29538;SDS011;16482;51.046;4.498;2023-05-18T12:17:43;8.50;;;3.30;;
29538;SDS011;16482;51.046;4.498;2023-05-18T12:20:28;8.15;;;2.92;;
29538;SDS011;16482;51.046;4.498;2023-05-18T12:22:55;5.90;;;2.80;;
29538;SDS011;16482;51.046;4.498;2023-05-18T12:25:24;9.77;;;3.05;;
29538;SDS011;16482;51.046;4.498;2023-05-18T12:27:54;9.05;;;3.25;;
29538;SDS011;16482;51.046;4.498;2023-05-18T12:30:24;5.93;;;2.78;;
29538;SDS011;16482;51.046;4.498;2023-05-18T12:32:59;5.90;;;3.10;;
29538;SDS011;16482;51.046;4.498;2023-05-18T12:35:31;9.38;;;3.35;;
29538;SDS011;16482;51.046;4.498;2023-05-18T12:38:07;6.68;;;3.40;;
29538;SDS011;16482;51.046;4.498;2023-05-18T12:40:34;7.18;;;3.00;;
29538;SDS011;16482;51.046;4.498;2023-05-18T12:43:12;4.32;;;2.67;;
29538;SDS011;16482;51.046;4.498;2023-05-18T12:45:38;4.97;;;2.90;;
29538;SDS011;16482;51.046;4.498;2023-05-18T12:48:05;8.32;;;2.90;;
29538;SDS011;16482;51.046;4.498;2023-05-18T12:50:35;8.25;;;3.85;;
29538;SDS011;16482;51.046;4.498;2023-05-18T12:53:19;7.35;;;2.83;;
29538;SDS011;16482;51.046;4.498;2023-05-18T12:55:58;6.75;;;2.83;;
29538;SDS011;16482;51.046;4.498;2023-05-18T12:58:25;7.18;;;3.15;;
29538;SDS011;16482;51.046;4.498;2023-05-18T13:00:51;7.55;;;2.95;;
29538;SDS011;16482;51.046;4.498;2023-05-18T13:03:20;7.30;;;3.10;;
29538;SDS011;16482;51.046;4.498;2023-05-18T13:08:42;5.50;;;2.90;;
29538;SDS011;16482;51.046;4.498;2023-05-18T13:11:12;5.65;;;2.72;;
29538;SDS011;16482;51.046;4.498;2023-05-18T13:13:59;6.03;;;2.30;;
29538;SDS011;16482;51.046;4.498;2023-05-18T13:16:29;8.25;;;2.85;;
29538;SDS011;16482;51.046;4.498;2023-05-18T13:18:56;7.13;;;2.92;;
29538;SDS011;16482;51.046;4.498;2023-05-18T13:21:29;9.32;;;3.03;;
29538;SDS011;16482;51.046;4.498;2023-05-18T13:26:33;7.53;;;2.85;;
29538;SDS011;16482;51.046;4.498;2023-05-18T13:28:59;7.93;;;3.05;;
29538;SDS011;16482;51.046;4.498;2023-05-18T13:31:25;8.05;;;2.80;;
29538;SDS011;16482;51.046;4.498;2023-05-18T13:33:54;9.32;;;3.10;;
29538;SDS011;16482;51.046;4.498;2023-05-18T13:36:20;8.68;;;2.70;;
29538;SDS011;16482;51.046;4.498;2023-05-18T13:38:49;7.00;;;3.08;;
29538;SDS011;16482;51.046;4.498;2023-05-18T13:41:16;5.97;;;2.53;;
29538;SDS011;16482;51.046;4.498;2023-05-18T13:43:45;4.70;;;2.25;;
29538;SDS011;16482;51.046;4.498;2023-05-18T13:46:14;7.85;;;2.50;;
29538;SDS011;16482;51.046;4.498;2023-05-18T13:48:44;5.65;;;2.30;;
29538;SDS011;16482;51.046;4.498;2023-05-18T13:51:11;8.82;;;3.00;;
29538;SDS011;16482;51.046;4.498;2023-05-18T13:53:44;5.25;;;2.47;;
29538;SDS011;16482;51.046;4.498;2023-05-18T13:56:17;9.65;;;2.47;;
29538;SDS011;16482;51.046;4.498;2023-05-18T13:58:43;5.25;;;2.30;;
29538;SDS011;16482;51.046;4.498;2023-05-18T14:01:12;8.07;;;2.10;;
29538;SDS011;16482;51.046;4.498;2023-05-18T14:03:45;6.35;;;2.20;;
29538;SDS011;16482;51.046;4.498;2023-05-18T14:06:12;5.60;;;2.25;;
29538;SDS011;16482;51.046;4.498;2023-05-18T14:08:43;9.00;;;2.38;;
29538;SDS011;16482;51.046;4.498;2023-05-18T14:11:14;14.38;;;2.92;;
29538;SDS011;16482;51.046;4.498;2023-05-18T14:13:50;9.80;;;2.75;;
29538;SDS011;16482;51.046;4.498;2023-05-18T14:16:16;6.78;;;2.35;;
29538;SDS011;16482;51.046;4.498;2023-05-18T14:18:42;5.93;;;2.38;;
29538;SDS011;16482;51.046;4.498;2023-05-18T14:21:17;9.45;;;2.35;;
29538;SDS011;16482;51.046;4.498;2023-05-18T14:23:43;8.85;;;2.80;;
29538;SDS011;16482;51.046;4.498;2023-05-18T14:26:12;5.68;;;2.38;;
29538;SDS011;16482;51.046;4.498;2023-05-18T14:28:41;5.18;;;2.28;;
29538;SDS011;16482;51.046;4.498;2023-05-18T14:31:13;5.50;;;2.20;;
29538;SDS011;16482;51.046;4.498;2023-05-18T14:33:48;5.93;;;2.42;;
29538;SDS011;16482;51.046;4.498;2023-05-18T14:36:21;5.13;;;2.38;;
29538;SDS011;16482;51.046;4.498;2023-05-18T14:38:47;8.95;;;2.70;;
29538;SDS011;16482;51.046;4.498;2023-05-18T14:41:13;8.25;;;2.92;;
29538;SDS011;16482;51.046;4.498;2023-05-18T14:43:40;5.82;;;2.20;;
29538;SDS011;16482;51.046;4.498;2023-05-18T14:46:13;6.60;;;2.25;;
29538;SDS011;16482;51.046;4.498;2023-05-18T14:48:47;5.57;;;2.30;;
29538;SDS011;16482;51.046;4.498;2023-05-18T14:51:13;4.43;;;2.20;;
29538;SDS011;16482;51.046;4.498;2023-05-18T14:53:45;5.38;;;2.40;;
29538;SDS011;16482;51.046;4.498;2023-05-18T14:56:11;6.05;;;2.17;;
29538;SDS011;16482;51.046;4.498;2023-05-18T14:58:45;6.35;;;2.60;;
29538;SDS011;16482;51.046;4.498;2023-05-18T15:01:10;6.40;;;2.17;;
29538;SDS011;16482;51.046;4.498;2023-05-18T15:03:45;5.63;;;2.22;;
29538;SDS011;16482;51.046;4.498;2023-05-18T15:06:12;5.22;;;2.22;;
29538;SDS011;16482;51.046;4.498;2023-05-18T15:08:43;7.05;;;2.38;;
29538;SDS011;16482;51.046;4.498;2023-05-18T15:11:12;5.53;;;2.30;;
29538;SDS011;16482;51.046;4.498;2023-05-18T15:13:41;7.60;;;2.17;;
29538;SDS011;16482;51.046;4.498;2023-05-18T15:16:17;6.45;;;2.35;;
29538;SDS011;16482;51.046;4.498;2023-05-18T15:18:52;7.93;;;2.50;;
29538;SDS011;16482;51.046;4.498;2023-05-18T15:21:28;5.35;;;2.40;;
29538;SDS011;16482;51.046;4.498;2023-05-18T15:23:54;7.20;;;2.30;;
29538;SDS011;16482;51.046;4.498;2023-05-18T15:26:21;6.95;;;2.70;;
29538;SDS011;16482;51.046;4.498;2023-05-18T15:28:47;8.50;;;2.90;;
29538;SDS011;16482;51.046;4.498;2023-05-18T15:31:13;7.40;;;2.25;;
29538;SDS011;16482;51.046;4.498;2023-05-18T15:33:42;4.88;;;2.17;;
29538;SDS011;16482;51.046;4.498;2023-05-18T15:36:11;6.93;;;2.42;;
29538;SDS011;16482;51.046;4.498;2023-05-18T15:38:46;6.80;;;2.03;;
29538;SDS011;16482;51.046;4.498;2023-05-18T15:41:12;5.32;;;2.20;;
29538;SDS011;16482;51.046;4.498;2023-05-18T15:43:41;7.93;;;2.50;;
29538;SDS011;16482;51.046;4.498;2023-05-18T15:46:18;5.35;;;2.15;;